McShan, Alabama
Current Conditions -  °F | °C
As of 8:58 AM on Monday 22 Dec 2014 (Local Time) from KCBM Reporting Station
Light Rain Light Rain  
Wind Chill: 53°   Ceiling: 700
Heat Index: 53°   Visibility: 10mi
Dew Point: 50°   Wind: 10mph
Humidity: 91%   Direction: 120°ESE
Pressure: 29.86"   Gusts: NA
Location:  33.38°N, 88.14°W
Report Text: KCBM 221458Z AUTO 12009KT 10SM -RA OVC007 12/10 A2986 RMK AO2 SLP115 T01150101 58016 $
Loading
Personal Weather Stations






























Interactive Weather Map New forecast layout! Learn more

10-Day Weather Forecast

Advertisements
Track Severe Weather on mobile